Grove Hall, Massachusetts
Current Conditions -  °F | °C
As of 9:54 PM on Saturday 25 Oct 2014 (Local Time) from KBOS Reporting Station
Overcast Overcast  
Wind Chill: 56°   Ceiling: 11000
Heat Index: 56°   Visibility: 10mi
Dew Point: 45°   Wind: 8mph
Humidity: 67%   Direction: 210°SSW
Pressure: 29.55"   Gusts: NA
Location:  42.3078°N, 71.0835°W
Report Text: KBOS 260154Z 21007KT 10SM FEW080 BKN110 OVC300 13/07 A2955 RMK AO2 SLP004 T01330072
Loading
Personal Weather Stations






























Interactive Weather Map
Tropical Storm Tracking
New forecast layout! Learn more

10-Day Weather Forecast

Advertisements
Track Severe Weather on mobile